Time;durP1;ratioP1;P1;durP2;ratioP2;P2;SDS_P1;SDS_P2;PMS_P1;PMS_P2;Temp;Humidity;BMP_temperature;BMP_pressure;BME280_temperature;BME280_humidity;BME280_pressure;Samples;Min_cycle;Max_cycle;Signal;HPM_P1;HPM_P2
2022/10/26 00:00:27;;;;;;;9.95;6.93;;;10.80;99.90;;;;;;5090692;28;20082;-67
2022/10/26 00:02:54;;;;;;;12.48;7.45;;;10.70;99.90;;;;;;5094504;28;20036;-67
2022/10/26 00:05:20;;;;;;;9.88;6.75;;;10.70;99.90;;;;;;5092336;28;20047;-67
2022/10/26 00:07:47;;;;;;;8.32;6.78;;;10.70;99.90;;;;;;5087632;28;20108;-67
2022/10/26 00:10:12;;;;;;;9.15;6.40;;;10.60;99.90;;;;;;5091427;28;20044;-67
2022/10/26 00:12:38;;;;;;;8.55;6.60;;;10.60;99.90;;;;;;5091743;28;20387;-67
2022/10/26 00:15:05;;;;;;;13.65;6.85;;;10.60;99.90;;;;;;5093231;28;20123;-67
2022/10/26 00:17:30;;;;;;;10.40;6.63;;;10.60;99.90;;;;;;5071380;28;20104;-67
2022/10/26 00:19:56;;;;;;;13.07;6.95;;;10.60;99.90;;;;;;5093317;28;20481;-67
2022/10/26 00:22:22;;;;;;;12.07;6.90;;;10.50;99.90;;;;;;5089950;28;20168;-67
2022/10/26 00:24:48;;;;;;;8.52;6.10;;;10.50;99.90;;;;;;5074031;28;20054;-67
2022/10/26 00:27:14;;;;;;;11.25;7.40;;;10.50;99.90;;;;;;5093889;28;20043;-67
2022/10/26 00:29:39;;;;;;;10.15;7.15;;;10.50;99.90;;;;;;5076181;28;20055;-68
2022/10/26 00:32:05;;;;;;;10.63;6.75;;;10.40;99.90;;;;;;5087597;28;20050;-67
2022/10/26 00:34:31;;;;;;;9.18;7.47;;;10.40;99.90;;;;;;5085726;28;20054;-67
2022/10/26 00:36:57;;;;;;;9.43;6.50;;;10.40;99.90;;;;;;5096314;28;20043;-67
2022/10/26 00:39:22;;;;;;;12.75;7.28;;;10.40;99.90;;;;;;5086790;28;20064;-67
2022/10/26 00:41:48;;;;;;;16.52;7.60;;;10.40;99.90;;;;;;5091676;28;20036;-67
2022/10/26 00:44:42;;;;;;;9.70;7.18;;;10.40;99.90;;;;;;5088968;28;20075;-67
2022/10/26 00:47:17;;;;;;;11.35;7.15;;;10.40;99.90;;;;;;5090034;28;20131;-67
2022/10/26 00:49:47;;;;;;;10.35;6.65;;;10.30;99.90;;;;;;5102347;28;20530;-67
2022/10/26 00:52:16;;;;;;;15.15;8.35;;;10.40;99.90;;;;;;5092524;28;20048;-67
2022/10/26 00:54:42;;;;;;;12.52;8.25;;;10.30;99.90;;;;;;5090835;28;20036;-67
2022/10/26 00:57:08;;;;;;;12.25;9.30;;;10.30;99.90;;;;;;5090088;28;20127;-67
2022/10/26 00:59:34;;;;;;;17.52;10.35;;;10.30;99.90;;;;;;5090619;28;20111;-67
2022/10/26 01:01:59;;;;;;;23.58;15.05;;;10.30;99.90;;;;;;5090318;28;20048;-67
2022/10/26 01:04:25;;;;;;;20.80;15.02;;;10.20;99.90;;;;;;5094344;28;20040;-67
2022/10/26 01:06:52;;;;;;;22.50;17.60;;;10.30;99.90;;;;;;5088735;28;20056;-67
2022/10/26 01:09:19;;;;;;;24.52;19.20;;;10.20;99.90;;;;;;5090818;28;20081;-67
2022/10/26 01:11:45;;;;;;;26.73;19.92;;;10.20;99.90;;;;;;5090252;28;20040;-67
2022/10/26 01:14:15;;;;;;;26.52;20.65;;;10.20;99.90;;;;;;5091120;28;20048;-67
2022/10/26 01:17:15;;;;;;;23.80;19.65;;;10.20;99.90;;;;;;5091419;28;20047;-67
2022/10/26 01:20:17;;;;;;;24.30;20.27;;;10.20;99.90;;;;;;5091356;28;20035;-67
2022/10/26 01:22:55;;;;;;;28.63;21.67;;;10.10;99.90;;;;;;5088281;28;20431;-67
2022/10/26 01:25:46;;;;;;;30.05;21.85;;;10.10;99.90;;;;;;5091565;28;20055;-67
2022/10/26 01:28:39;;;;;;;26.92;20.85;;;10.10;99.90;;;;;;5088966;28;20068;-67
2022/10/26 01:31:10;;;;;;;25.77;19.77;;;10.10;99.90;;;;;;5089737;28;20050;-67
2022/10/26 01:33:47;;;;;;;27.58;20.13;;;10.10;99.90;;;;;;5088149;28;20052;-67
2022/10/26 01:36:24;;;;;;;23.70;19.92;;;10.10;99.90;;;;;;5089510;28;20040;-67
2022/10/26 01:39:13;;;;;;;21.95;18.17;;;10.10;99.90;;;;;;5092842;28;20044;-67
2022/10/26 01:41:51;;;;;;;21.58;16.27;;;10.00;99.90;;;;;;5090446;28;20086;-67
2022/10/26 01:44:16;;;;;;;21.50;15.85;;;10.00;99.90;;;;;;5075004;28;20055;-67
2022/10/26 01:46:45;;;;;;;21.30;15.75;;;10.00;99.90;;;;;;5089809;28;20039;-67
2022/10/26 01:49:13;;;;;;;20.67;15.23;;;10.00;99.90;;;;;;5091754;28;20410;-67
2022/10/26 01:51:42;;;;;;;16.40;13.30;;;10.00;99.90;;;;;;5094153;28;20031;-67
2022/10/26 01:54:08;;;;;;;16.38;12.95;;;10.00;99.90;;;;;;5088778;28;20546;-67
2022/10/26 01:56:39;;;;;;;17.67;13.23;;;9.90;99.90;;;;;;5089239;28;20130;-67
2022/10/26 01:59:20;;;;;;;16.38;11.82;;;9.90;99.90;;;;;;5086033;28;20036;-67
2022/10/26 02:02:07;;;;;;;18.95;12.02;;;9.90;99.90;;;;;;5089400;28;20050;-67
2022/10/26 02:04:33;;;;;;;18.70;10.95;;;9.90;99.90;;;;;;5089544;28;20119;-67
2022/10/26 02:07:08;;;;;;;17.60;10.80;;;9.90;99.90;;;;;;5087898;28;20474;-67
2022/10/26 02:09:57;;;;;;;14.85;10.70;;;9.90;99.90;;;;;;5086061;28;20132;-67
2022/10/26 02:12:33;;;;;;;15.73;9.60;;;9.90;99.90;;;;;;5091889;28;20143;-67
2022/10/26 02:15:16;;;;;;;16.17;9.52;;;9.90;99.90;;;;;;5085523;28;20051;-67
2022/10/26 02:17:56;;;;;;;14.00;9.60;;;9.90;99.90;;;;;;5090083;28;20044;-67
2022/10/26 02:20:34;;;;;;;14.13;8.88;;;9.90;99.90;;;;;;5089323;28;20036;-67
2022/10/26 02:23:04;;;;;;;14.75;10.30;;;9.90;99.90;;;;;;5087442;28;20040;-67
2022/10/26 02:25:33;;;;;;;13.45;9.68;;;9.90;99.90;;;;;;5085769;28;20035;-67
2022/10/26 02:28:04;;;;;;;10.82;9.48;;;9.90;99.90;;;;;;5087238;28;20101;-67
2022/10/26 02:30:32;;;;;;;14.57;9.90;;;9.90;99.90;;;;;;5083454;28;20410;-67
2022/10/26 02:32:59;;;;;;;14.63;9.70;;;9.90;99.90;;;;;;5086730;28;20513;-67
2022/10/26 02:35:36;;;;;;;10.50;9.20;;;10.00;99.90;;;;;;5090514;28;20123;-67
2022/10/26 02:38:06;;;;;;;17.38;9.95;;;10.00;99.90;;;;;;5086536;28;20135;-67
2022/10/26 02:40:33;;;;;;;11.75;9.88;;;10.00;99.90;;;;;;5084445;28;20049;-67
2022/10/26 02:43:04;;;;;;;13.90;9.35;;;10.00;99.90;;;;;;5089977;28;20040;-67
2022/10/26 02:45:37;;;;;;;16.60;10.55;;;10.00;99.90;;;;;;5071275;28;20072;-67
2022/10/26 02:48:03;;;;;;;15.00;9.75;;;10.00;99.90;;;;;;5070857;28;20051;-67
2022/10/26 02:50:47;;;;;;;14.60;9.55;;;10.00;99.90;;;;;;5088920;28;20506;-67
2022/10/26 02:53:40;;;;;;;15.43;10.18;;;10.10;99.90;;;;;;5070673;28;20489;-67
2022/10/26 02:56:15;;;;;;;15.48;10.25;;;10.00;99.90;;;;;;5086277;28;20049;-67
2022/10/26 02:58:46;;;;;;;16.92;9.98;;;10.10;99.90;;;;;;5069835;28;20085;-67
2022/10/26 03:01:12;;;;;;;14.10;9.85;;;10.00;99.90;;;;;;5087310;28;20043;-67
2022/10/26 03:03:38;;;;;;;18.38;9.98;;;10.10;99.90;;;;;;5090033;28;20895;-67
2022/10/26 03:06:03;;;;;;;13.40;9.82;;;10.10;99.90;;;;;;5088769;28;20186;-67
2022/10/26 03:08:29;;;;;;;13.60;9.30;;;10.10;99.90;;;;;;5087639;28;20044;-67
2022/10/26 03:10:55;;;;;;;14.60;9.57;;;10.10;99.90;;;;;;5086695;28;20040;-67
2022/10/26 03:13:20;;;;;;;14.77;9.68;;;10.10;99.90;;;;;;5090037;28;20044;-67
2022/10/26 03:15:46;;;;;;;14.45;9.98;;;10.10;99.90;;;;;;5092867;28;20055;-67
2022/10/26 03:18:11;;;;;;;13.13;9.48;;;10.10;99.90;;;;;;5091588;28;20173;-67
2022/10/26 03:20:37;;;;;;;17.30;10.15;;;10.10;99.90;;;;;;5092947;28;20394;-67
2022/10/26 03:23:03;;;;;;;10.85;9.38;;;10.10;99.90;;;;;;5090787;28;20043;-67
2022/10/26 03:25:28;;;;;;;14.07;9.65;;;10.20;99.90;;;;;;5090876;28;20032;-67
2022/10/26 03:28:02;;;;;;;16.08;9.63;;;10.10;99.90;;;;;;5089709;28;20044;-67
2022/10/26 03:30:29;;;;;;;17.20;9.85;;;10.20;99.90;;;;;;5091936;28;20123;-67
2022/10/26 03:32:55;;;;;;;16.20;9.65;;;10.20;99.90;;;;;;5075329;28;20089;-67
2022/10/26 03:35:21;;;;;;;15.15;9.80;;;10.20;99.90;;;;;;5079351;28;20760;-67
2022/10/26 03:37:47;;;;;;;16.20;10.13;;;10.20;99.90;;;;;;5074972;28;20055;-67
2022/10/26 03:40:13;;;;;;;11.73;9.50;;;10.20;99.90;;;;;;5075007;28;20044;-67
2022/10/26 03:42:39;;;;;;;19.98;10.65;;;10.10;99.90;;;;;;5092452;28;20040;-67
2022/10/26 03:45:06;;;;;;;18.00;9.90;;;10.10;99.90;;;;;;5094477;28;20089;-67
2022/10/26 03:47:31;;;;;;;16.38;10.45;;;10.10;99.90;;;;;;5092857;28;20051;-67
2022/10/26 03:49:57;;;;;;;13.98;11.27;;;10.10;99.90;;;;;;5066529;28;20090;-67
2022/10/26 03:52:23;;;;;;;12.57;10.02;;;10.10;99.90;;;;;;5056699;28;20052;-67
2022/10/26 03:54:50;;;;;;;12.82;10.13;;;10.10;99.90;;;;;;5056171;28;20054;-67
2022/10/26 03:57:16;;;;;;;15.65;9.63;;;10.10;99.90;;;;;;5053773;28;20044;-67
2022/10/26 03:59:41;;;;;;;14.68;10.55;;;10.10;99.90;;;;;;5071660;28;20047;-67
2022/10/26 04:02:07;;;;;;;18.67;10.57;;;10.10;99.90;;;;;;5071790;28;20111;-67
2022/10/26 04:04:32;;;;;;;14.30;10.15;;;10.10;99.90;;;;;;5074488;28;20152;-67
2022/10/26 04:06:58;;;;;;;13.35;10.20;;;10.00;99.90;;;;;;5073042;28;20452;-67
2022/10/26 04:09:24;;;;;;;15.32;10.20;;;10.00;99.90;;;;;;5088016;28;20043;-67
2022/10/26 04:11:49;;;;;;;14.20;9.88;;;10.00;99.90;;;;;;5071358;28;20036;-67
2022/10/26 04:14:15;;;;;;;14.40;11.00;;;10.00;99.90;;;;;;5072682;28;20032;-67
2022/10/26 04:16:40;;;;;;;15.15;10.63;;;10.00;99.90;;;;;;5073252;28;20035;-67
2022/10/26 04:19:06;;;;;;;14.82;10.68;;;10.00;99.90;;;;;;5073038;28;20538;-67
2022/10/26 04:21:32;;;;;;;12.55;10.57;;;10.00;99.90;;;;;;5091219;28;20047;-67
2022/10/26 04:23:58;;;;;;;16.67;11.32;;;10.00;99.90;;;;;;5071739;28;20040;-67
2022/10/26 04:26:23;;;;;;;16.75;10.75;;;10.00;99.90;;;;;;5052354;28;20052;-67
2022/10/26 04:28:49;;;;;;;17.50;10.77;;;10.10;99.90;;;;;;5069308;28;20032;-67
2022/10/26 04:31:15;;;;;;;13.10;11.05;;;10.10;99.90;;;;;;5072911;28;20722;-67
2022/10/26 04:33:40;;;;;;;14.95;11.15;;;10.10;99.90;;;;;;5072955;28;20115;-67
2022/10/26 04:36:06;;;;;;;16.88;11.98;;;10.10;99.90;;;;;;5072910;28;20040;-67
2022/10/26 04:38:32;;;;;;;20.17;11.75;;;10.10;99.90;;;;;;5074643;28;20571;-67
2022/10/26 04:40:57;;;;;;;15.40;10.35;;;10.10;99.90;;;;;;5055542;28;20123;-67
2022/10/26 04:43:23;;;;;;;15.95;11.18;;;10.10;99.90;;;;;;5072327;28;20112;-67
2022/10/26 04:45:49;;;;;;;17.13;11.18;;;10.10;99.90;;;;;;5072263;28;20514;-67
2022/10/26 04:48:14;;;;;;;15.18;10.60;;;10.10;99.90;;;;;;5077525;28;20048;-67
2022/10/26 04:50:40;;;;;;;14.23;10.95;;;10.20;99.90;;;;;;5093754;28;20032;-67
2022/10/26 04:53:07;;;;;;;13.95;10.88;;;10.20;99.90;;;;;;5089819;28;20506;-67
2022/10/26 04:55:34;;;;;;;15.45;10.65;;;10.20;99.90;;;;;;5073635;28;20059;-67
2022/10/26 04:57:59;;;;;;;14.90;10.60;;;10.20;99.90;;;;;;5087901;28;20126;-67
2022/10/26 05:00:25;;;;;;;20.27;11.85;;;10.20;99.90;;;;;;5095703;28;20530;-67
2022/10/26 05:02:51;;;;;;;16.90;11.05;;;10.20;99.90;;;;;;5075849;28;20048;-67
2022/10/26 05:05:18;;;;;;;14.85;10.50;;;10.30;99.90;;;;;;5091863;28;20436;-67
2022/10/26 05:07:43;;;;;;;14.63;11.23;;;10.20;99.90;;;;;;5090438;28;20036;-67
2022/10/26 05:10:09;;;;;;;16.67;10.73;;;10.30;99.90;;;;;;5090377;28;20086;-67
2022/10/26 05:12:35;;;;;;;14.52;11.27;;;10.30;99.90;;;;;;5089351;28;20516;-68
2022/10/26 05:15:00;;;;;;;15.13;10.70;;;10.30;99.90;;;;;;5088031;28;20048;-67
2022/10/26 05:17:26;;;;;;;14.68;10.50;;;10.30;99.90;;;;;;5088870;28;20068;-67
2022/10/26 05:19:54;;;;;;;15.60;10.35;;;10.30;99.90;;;;;;5090710;28;20541;-67
2022/10/26 05:22:26;;;;;;;15.07;11.05;;;10.30;99.90;;;;;;5089470;28;20048;-67
2022/10/26 05:24:51;;;;;;;14.68;11.10;;;10.30;99.90;;;;;;5090338;28;20402;-67
2022/10/26 05:27:17;;;;;;;17.35;10.85;;;10.30;99.90;;;;;;5088558;28;20055;-67
2022/10/26 05:29:43;;;;;;;13.45;10.57;;;10.40;99.90;;;;;;5088519;28;20040;-67
2022/10/26 05:32:08;;;;;;;15.15;10.48;;;10.40;99.90;;;;;;5090016;28;20052;-67
2022/10/26 05:34:34;;;;;;;15.02;10.48;;;10.40;99.90;;;;;;5089313;28;20063;-67
2022/10/26 05:37:00;;;;;;;16.65;11.00;;;10.40;99.90;;;;;;5090531;28;20055;-67
2022/10/26 05:39:25;;;;;;;15.38;11.18;;;10.40;99.90;;;;;;5089944;28;20036;-67
2022/10/26 05:41:51;;;;;;;17.42;11.15;;;10.40;99.90;;;;;;5086877;28;20546;-67
2022/10/26 05:44:16;;;;;;;18.23;10.45;;;10.40;99.90;;;;;;5089244;28;20036;-67
2022/10/26 05:46:42;;;;;;;12.15;9.07;;;10.40;99.90;;;;;;5088351;28;20040;-68
2022/10/26 05:49:07;;;;;;;12.30;9.88;;;10.40;99.90;;;;;;5089032;28;20088;-67
2022/10/26 05:51:36;;;;;;;15.48;9.77;;;10.40;99.90;;;;;;5089341;28;20450;-68
2022/10/26 05:54:02;;;;;;;14.65;10.48;;;10.40;99.90;;;;;;5089223;28;20111;-67
2022/10/26 05:56:37;;;;;;;14.05;9.70;;;10.40;99.90;;;;;;5089299;28;20063;-68
2022/10/26 05:59:14;;;;;;;16.67;9.95;;;10.40;99.90;;;;;;5088436;28;20036;-67
2022/10/26 06:01:47;;;;;;;15.15;10.18;;;10.40;99.90;;;;;;5087524;28;20521;-67
2022/10/26 06:04:40;;;;;;;13.45;10.32;;;10.40;99.90;;;;;;5088919;28;20115;-68
2022/10/26 06:07:12;;;;;;;13.02;9.88;;;10.40;99.90;;;;;;5088805;28;20051;-67
2022/10/26 06:09:39;;;;;;;15.15;9.60;;;10.40;99.90;;;;;;5087084;28;20047;-67
2022/10/26 06:12:06;;;;;;;12.30;9.93;;;10.40;99.90;;;;;;5082028;28;20137;-67
2022/10/26 06:14:33;;;;;;;12.93;9.50;;;10.40;99.90;;;;;;5088019;28;20052;-67
2022/10/26 06:17:27;;;;;;;14.50;10.20;;;10.40;99.90;;;;;;5087876;28;20044;-67
2022/10/26 06:20:08;;;;;;;14.20;9.85;;;10.50;99.90;;;;;;5087650;28;20043;-68
2022/10/26 06:22:47;;;;;;;15.48;9.70;;;10.50;99.90;;;;;;5088593;28;20036;-67
2022/10/26 06:25:29;;;;;;;13.57;8.75;;;10.50;99.90;;;;;;5088440;28;20055;-67
2022/10/26 06:28:03;;;;;;;11.10;8.67;;;10.50;99.90;;;;;;5086091;28;20043;-68
2022/10/26 06:30:29;;;;;;;14.25;8.93;;;10.60;99.90;;;;;;5088922;28;20101;-68
2022/10/26 06:32:55;;;;;;;14.40;8.57;;;10.50;99.90;;;;;;5089105;28;20048;-67
2022/10/26 06:35:37;;;;;;;16.77;9.13;;;10.60;99.90;;;;;;5087153;28;20394;-67
2022/10/26 06:38:09;;;;;;;11.95;9.10;;;10.60;99.90;;;;;;5072208;28;20044;-67
2022/10/26 06:40:38;;;;;;;13.85;9.23;;;10.60;99.90;;;;;;5071994;28;20121;-67
2022/10/26 06:43:12;;;;;;;14.68;8.93;;;10.70;99.90;;;;;;5091682;28;20039;-67
2022/10/26 06:45:42;;;;;;;16.38;9.48;;;10.70;99.90;;;;;;5093001;28;20043;-67
2022/10/26 06:48:18;;;;;;;11.25;8.35;;;10.70;99.90;;;;;;5076586;28;20612;-67
2022/10/26 06:50:50;;;;;;;14.25;8.52;;;10.80;99.90;;;;;;5089611;28;20048;-68
2022/10/26 06:53:44;;;;;;;13.88;8.23;;;10.80;99.90;;;;;;5095132;28;20124;-66
2022/10/26 06:56:11;;;;;;;10.45;8.32;;;10.80;99.90;;;;;;5093479;28;20534;-67
2022/10/26 06:58:38;;;;;;;14.35;8.02;;;10.80;99.90;;;;;;5092710;28;20040;-67
2022/10/26 07:01:05;;;;;;;14.05;8.60;;;10.90;99.90;;;;;;5091126;28;20200;-67
2022/10/26 07:03:30;;;;;;;14.80;7.90;;;10.90;99.90;;;;;;5091992;28;20071;-67
2022/10/26 07:05:56;;;;;;;12.65;8.30;;;11.00;99.90;;;;;;5089452;28;20094;-67
2022/10/26 07:08:22;;;;;;;9.73;7.53;;;11.00;99.90;;;;;;5092708;28;20042;-67
2022/10/26 07:10:48;;;;;;;13.65;8.02;;;11.10;99.90;;;;;;5092254;28;20043;-67
2022/10/26 07:13:14;;;;;;;11.20;7.82;;;11.10;99.90;;;;;;5092046;28;20051;-67
2022/10/26 07:15:41;;;;;;;12.98;7.88;;;11.10;99.90;;;;;;5091846;28;20067;-67
2022/10/26 07:18:08;;;;;;;14.52;7.63;;;11.20;99.90;;;;;;5092374;28;20040;-67
2022/10/26 07:20:38;;;;;;;11.05;7.53;;;11.20;99.90;;;;;;5092146;28;20432;-68
2022/10/26 07:23:10;;;;;;;9.68;6.75;;;11.20;99.90;;;;;;5088473;28;20419;-67
2022/10/26 07:25:39;;;;;;;16.92;7.80;;;11.30;99.90;;;;;;5092597;28;20409;-67
2022/10/26 07:28:06;;;;;;;8.80;7.35;;;11.30;99.90;;;;;;5092182;28;20150;-68
2022/10/26 07:30:32;;;;;;;14.20;7.45;;;11.40;99.90;;;;;;5072599;28;20138;-67
2022/10/26 07:33:10;;;;;;;9.55;6.95;;;11.40;99.90;;;;;;5092166;28;20521;-67
2022/10/26 07:35:36;;;;;;;9.40;6.63;;;11.50;99.90;;;;;;5074343;28;20035;-68
2022/10/26 07:38:03;;;;;;;10.63;7.30;;;11.60;99.90;;;;;;5091771;28;20043;-67
2022/10/26 07:40:29;;;;;;;10.45;7.40;;;11.70;99.90;;;;;;5074965;28;20036;-68
2022/10/26 07:42:59;;;;;;;12.07;7.75;;;11.70;99.90;;;;;;5091522;28;20870;-68
2022/10/26 07:45:26;;;;;;;10.98;7.10;;;11.80;99.90;;;;;;5091521;28;20127;-67
2022/10/26 07:47:52;;;;;;;15.15;6.80;;;11.90;99.90;;;;;;5088946;28;20059;-68
2022/10/26 07:50:18;;;;;;;9.27;6.60;;;12.10;99.90;;;;;;5074733;28;20097;-68
2022/10/26 07:52:43;;;;;;;8.70;5.45;;;12.20;99.90;;;;;;5074444;28;20398;-68
2022/10/26 07:55:10;;;;;;;10.40;6.03;;;12.30;99.90;;;;;;5071673;28;20040;-67
2022/10/26 07:57:36;;;;;;;13.07;5.97;;;12.40;99.90;;;;;;5070933;28;20444;-68
2022/10/26 08:00:04;;;;;;;7.45;5.38;;;12.40;99.90;;;;;;5074076;28;20123;-67
2022/10/26 08:02:30;;;;;;;12.23;6.45;;;12.50;99.90;;;;;;5074230;28;20633;-67
2022/10/26 08:04:56;;;;;;;7.85;5.82;;;12.50;99.90;;;;;;5084934;28;20066;-67
2022/10/26 08:07:22;;;;;;;8.20;5.05;;;12.50;99.90;;;;;;5073408;28;20058;-68
2022/10/26 08:09:47;;;;;;;7.13;5.45;;;12.60;99.90;;;;;;5091424;28;20044;-67
2022/10/26 08:12:15;;;;;;;10.73;5.63;;;12.60;99.90;;;;;;5073530;28;20054;-67
2022/10/26 08:14:41;;;;;;;9.25;5.43;;;12.60;99.90;;;;;;5074278;28;20487;-67
2022/10/26 08:17:07;;;;;;;8.07;5.72;;;12.60;99.90;;;;;;5073321;28;20044;-67
2022/10/26 08:19:33;;;;;;;9.23;5.53;;;12.70;99.90;;;;;;5072953;28;20036;-67
2022/10/26 08:21:59;;;;;;;7.90;6.13;;;12.60;99.90;;;;;;5071898;28;20100;-67
2022/10/26 08:24:24;;;;;;;9.45;5.97;;;12.60;99.90;;;;;;5073415;28;20040;-67
2022/10/26 08:26:50;;;;;;;8.45;4.90;;;12.70;99.90;;;;;;5073751;28;20056;-67
2022/10/26 08:29:15;;;;;;;9.40;6.18;;;12.80;99.90;;;;;;5071166;28;20044;-67
2022/10/26 08:31:41;;;;;;;8.52;5.65;;;12.90;99.90;;;;;;5056353;28;20181;-67
2022/10/26 08:34:07;;;;;;;9.80;7.07;;;13.10;99.90;;;;;;5073561;28;20378;-67
2022/10/26 08:36:32;;;;;;;10.20;5.55;;;13.20;99.90;;;;;;5073881;28;20441;-68
2022/10/26 08:38:58;;;;;;;8.25;4.85;;;13.40;99.90;;;;;;5055967;28;20055;-67
2022/10/26 08:41:37;;;;;;;9.30;6.32;;;13.60;99.90;;;;;;5072897;28;20054;-68
2022/10/26 08:44:19;;;;;;;13.35;6.85;;;13.70;99.90;;;;;;5073599;28;20048;-67
2022/10/26 08:46:54;;;;;;;10.50;7.30;;;13.90;99.90;;;;;;5073302;28;20116;-67
2022/10/26 08:49:37;;;;;;;10.05;5.57;;;14.00;99.90;;;;;;5072291;28;20055;-67
2022/10/26 08:52:04;;;;;;;13.73;8.80;;;14.10;99.90;;;;;;5071860;28;20058;-67
2022/10/26 08:54:44;;;;;;;9.50;7.95;;;14.30;99.90;;;;;;5090402;28;20395;-67
2022/10/26 08:57:32;;;;;;;8.48;4.00;;;14.50;99.90;;;;;;5072802;28;20043;-67
2022/10/26 09:00:05;;;;;;;6.50;4.78;;;14.70;99.90;;;;;;5069552;28;20044;-67
2022/10/26 09:02:31;;;;;;;8.50;5.63;;;14.90;99.90;;;;;;5071620;28;20040;-67
2022/10/26 09:04:58;;;;;;;6.30;4.63;;;15.20;99.90;;;;;;5091503;28;20442;-67
2022/10/26 09:07:30;;;;;;;5.68;3.55;;;15.40;99.90;;;;;;5073187;28;20070;-68
2022/10/26 09:10:36;;;;;;;7.60;3.75;;;15.50;99.90;;;;;;5072575;28;20039;-68
2022/10/26 09:13:23;;;;;;;5.95;2.90;;;15.70;99.90;;;;;;5049879;28;20465;-67
2022/10/26 09:15:55;;;;;;;3.95;2.90;;;15.90;99.90;;;;;;5063521;28;20072;-68
2022/10/26 09:18:46;;;;;;;6.78;2.97;;;16.10;99.90;;;;;;5054172;28;20079;-67
2022/10/26 09:21:20;;;;;;;10.35;3.40;;;16.30;99.90;;;;;;5071913;28;20048;-68
2022/10/26 09:23:58;;;;;;;7.43;3.20;;;16.40;99.90;;;;;;5072186;28;20036;-67
2022/10/26 09:26:52;;;;;;;6.28;3.47;;;16.50;99.90;;;;;;5072917;28;20394;-68
2022/10/26 09:29:20;;;;;;;5.70;2.90;;;16.70;99.90;;;;;;5073136;28;20088;-67
2022/10/26 09:31:54;;;;;;;4.90;2.60;;;16.60;99.90;;;;;;5128411;27;20452;-68
2022/10/26 09:34:30;;;;;;;8.60;3.13;;;16.60;99.90;;;;;;5144179;27;20038;-68
2022/10/26 09:36:56;;;;;;;5.53;3.60;;;16.50;99.90;;;;;;5148219;27;20034;-69
2022/10/26 09:39:40;;;;;;;10.93;3.70;;;16.50;99.90;;;;;;5130490;27;20069;-68
2022/10/26 09:42:24;;;;;;;6.18;2.80;;;16.40;99.90;;;;;;5127777;27;20058;-69
2022/10/26 09:44:56;;;;;;;7.53;2.88;;;16.30;99.90;;;;;;5106073;27;20050;-68
2022/10/26 09:47:37;;;;;;;6.90;4.50;;;16.40;99.90;;;;;;5126511;27;20106;-68
2022/10/26 09:50:15;;;;;;;7.22;2.70;;;16.50;99.90;;;;;;5126775;27;20043;-68
2022/10/26 09:52:41;;;;;;;5.07;2.50;;;16.60;99.90;;;;;;5108713;27;20114;-68
2022/10/26 09:55:11;;;;;;;4.80;2.70;;;16.70;99.90;;;;;;5109721;27;20071;-67
2022/10/26 09:57:43;;;;;;;4.78;2.70;;;16.90;99.90;;;;;;5145011;27;20041;-68
2022/10/26 10:00:14;;;;;;;4.60;2.35;;;17.30;99.90;;;;;;5147244;27;20047;-68
2022/10/26 10:02:45;;;;;;;5.90;2.53;;;17.60;99.90;;;;;;5146839;27;20046;-66
2022/10/26 10:05:31;;;;;;;4.28;2.42;;;17.70;99.90;;;;;;5124969;27;20284;-66
2022/10/26 10:08:24;;;;;;;6.43;2.65;;;17.70;99.90;;;;;;5128372;27;20039;-66
2022/10/26 10:10:54;;;;;;;4.57;2.72;;;17.70;99.90;;;;;;5146327;27;20107;-66
2022/10/26 10:13:21;;;;;;;4.93;2.20;;;17.90;99.90;;;;;;5147105;27;20114;-67
2022/10/26 10:16:11;;;;;;;4.55;2.10;;;18.20;99.90;;;;;;5129045;27;20058;-66
2022/10/26 10:18:38;;;;;;;5.57;2.75;;;18.60;99.90;;;;;;5143376;27;20114;-66
2022/10/26 10:21:04;;;;;;;6.72;2.35;;;18.90;99.90;;;;;;5128519;27;20059;-66
2022/10/26 10:23:53;;;;;;;2.50;1.80;;;19.20;99.90;;;;;;5146867;27;20039;-66
2022/10/26 10:26:19;;;;;;;3.58;1.83;;;19.50;99.90;;;;;;5129773;27;20050;-66
2022/10/26 10:28:59;;;;;;;3.65;1.70;;;19.80;99.90;;;;;;5143908;27;20051;-66
2022/10/26 10:31:30;;;;;;;5.13;1.88;;;20.10;99.90;;;;;;5146468;27;20095;-67
2022/10/26 10:33:56;;;;;;;4.68;2.05;;;20.40;99.90;;;;;;5127009;27;20035;-67
2022/10/26 10:36:25;;;;;;;7.82;2.00;;;20.60;99.90;;;;;;5130556;27;20618;-66
2022/10/26 10:38:52;;;;;;;6.05;2.25;;;20.70;99.90;;;;;;5123789;27;20038;-66
2022/10/26 10:41:20;;;;;;;4.40;1.50;;;20.60;99.90;;;;;;5124616;27;20043;-67
2022/10/26 10:43:54;;;;;;;4.50;1.70;;;20.60;99.90;;;;;;5129230;27;20039;-68
2022/10/26 10:46:23;;;;;;;6.25;2.60;;;20.50;99.90;;;;;;5108658;28;20489;-66
2022/10/26 10:48:54;;;;;;;3.83;1.90;;;20.40;99.90;;;;;;5129577;27;20516;-67
2022/10/26 10:51:22;;;;;;;4.40;2.05;;;20.20;99.90;;;;;;5111563;28;20432;-67
2022/10/26 10:53:54;;;;;;;4.15;1.70;;;20.10;99.90;;;;;;5111663;28;20044;-66
2022/10/26 10:56:33;;;;;;;4.95;2.13;;;19.90;99.90;;;;;;5132105;27;20038;-66
2022/10/26 10:59:57;;;;;;;4.97;2.55;;;19.60;99.90;;;;;;5111328;28;20044;-67
2022/10/26 11:02:52;;;;;;;4.95;2.20;;;19.40;99.90;;;;;;5012502;28;20128;-67
2022/10/26 11:05:21;;;;;;;5.32;2.20;;;19.20;99.90;;;;;;5014042;28;20451;-67
2022/10/26 11:08:07;;;;;;;4.82;2.13;;;19.20;99.90;;;;;;5013562;28;20049;-67
2022/10/26 11:10:37;;;;;;;5.32;2.08;;;19.30;99.90;;;;;;5015635;28;20589;-67
2022/10/26 11:13:14;;;;;;;6.20;1.90;;;19.30;99.90;;;;;;5021719;28;20053;-67
2022/10/26 11:15:41;;;;;;;6.15;2.15;;;19.40;99.90;;;;;;5027946;28;20037;-67
2022/10/26 11:18:11;;;;;;;7.13;2.10;;;19.50;99.90;;;;;;5024345;28;20400;-67
2022/10/26 11:20:42;;;;;;;3.67;1.80;;;19.60;99.90;;;;;;5019225;28;20048;-66
2022/10/26 11:23:17;;;;;;;13.18;6.57;;;19.70;99.90;;;;;;5019486;28;20088;-66
2022/10/26 11:25:48;;;;;;;5.30;2.40;;;19.60;99.90;;;;;;5025506;28;20049;-67
2022/10/26 11:28:46;;;;;;;5.05;2.00;;;19.50;99.90;;;;;;5020284;28;20463;-67
2022/10/26 11:31:19;;;;;;;4.80;2.20;;;19.30;99.90;;;;;;5012272;28;20054;-67
2022/10/26 11:34:12;;;;;;;5.47;1.88;;;19.20;99.90;;;;;;5014946;28;20430;-67
2022/10/26 11:36:40;;;;;;;4.05;1.92;;;19.00;99.90;;;;;;5004515;28;20302;-66
2022/10/26 11:39:33;;;;;;;4.75;1.95;;;18.90;99.90;;;;;;5128908;27;20035;-67
2022/10/26 11:42:01;;;;;;;;;;;18.90;99.90;;;;;;5111002;27;20554;-66
2022/10/26 11:44:51;;;;;;;4.30;1.88;;;18.70;99.90;;;;;;5107928;28;19919;-67
2022/10/26 11:47:23;;;;;;;3.38;1.85;;;18.70;99.90;;;;;;5109278;28;20062;-67
2022/10/26 11:49:59;;;;;;;5.60;1.88;;;18.70;99.90;;;;;;5106073;27;20047;-67
2022/10/26 11:52:34;;;;;;;4.80;2.00;;;18.70;99.90;;;;;;5109920;28;20039;-66
2022/10/26 11:55:03;;;;;;;4.28;2.05;;;18.70;99.90;;;;;;5106113;28;20039;-67
2022/10/26 11:57:32;;;;;;;9.93;2.40;;;18.60;99.90;;;;;;5108466;28;20055;-66
2022/10/26 12:00:01;;;;;;;6.90;2.17;;;18.60;99.90;;;;;;5109784;28;20028;-68
2022/10/26 12:02:27;;;;;;;5.00;2.40;;;18.50;99.90;;;;;;5109601;28;20122;-67
2022/10/26 12:05:04;;;;;;;7.70;2.33;;;18.50;99.90;;;;;;5109672;28;20550;-67
2022/10/26 12:07:38;;;;;;;4.07;2.40;;;18.40;99.90;;;;;;5102397;28;20127;-67
2022/10/26 12:10:11;;;;;;;4.93;2.38;;;18.40;99.90;;;;;;5082383;28;20138;-67
2022/10/26 12:12:58;;;;;;;5.28;2.40;;;18.40;99.90;;;;;;5109690;27;20043;-67
2022/10/26 12:15:38;;;;;;;5.78;2.00;;;18.50;99.90;;;;;;5129909;27;20043;-69
2022/10/26 12:18:37;;;;;;;5.13;2.90;;;18.50;99.90;;;;;;5123762;27;20046;-69
2022/10/26 12:21:06;;;;;;;7.10;2.80;;;18.50;99.90;;;;;;5102881;28;20117;-68
2022/10/26 12:23:54;;;;;;;7.57;2.65;;;18.50;99.90;;;;;;5105871;27;20047;-67
2022/10/26 12:26:22;;;;;;;6.25;2.80;;;18.50;99.90;;;;;;5109507;27;20042;-65
2022/10/26 12:29:01;;;;;;;6.03;2.45;;;18.50;99.90;;;;;;5100642;28;20521;-68
2022/10/26 12:31:36;;;;;;;6.93;2.70;;;18.60;99.90;;;;;;5079428;28;20043;-67
2022/10/26 12:34:12;;;;;;;7.72;2.80;;;18.50;99.90;;;;;;5101989;28;20671;-69
2022/10/26 12:36:47;;;;;;;5.43;2.42;;;18.60;99.90;;;;;;5122868;27;20035;-68
2022/10/26 12:39:32;;;;;;;6.43;2.58;;;18.60;99.90;;;;;;5114995;27;20056;-69
2022/10/26 12:42:09;;;;;;;7.88;3.00;;;18.50;99.90;;;;;;5105897;28;20046;-68
2022/10/26 12:44:59;;;;;;;8.10;3.00;;;18.50;99.90;;;;;;5114041;27;20139;-68
2022/10/26 12:47:28;;;;;;;5.40;2.95;;;18.50;99.90;;;;;;5108651;27;20565;-68
2022/10/26 12:50:06;;;;;;;7.68;2.80;;;18.30;99.90;;;;;;5121800;27;20043;-68
2022/10/26 12:52:52;;;;;;;7.13;2.70;;;18.20;99.90;;;;;;5109412;28;20031;-68
2022/10/26 12:55:27;;;;;;;6.57;3.05;;;18.20;99.90;;;;;;5109664;28;20043;-68
2022/10/26 12:57:55;;;;;;;6.38;3.42;;;18.10;99.90;;;;;;5105808;28;20124;-68
2022/10/26 13:00:24;;;;;;;6.78;3.22;;;18.10;99.90;;;;;;5117540;27;20043;-67